createdAt,value
2023-02-15T00:00:14.724Z,14.43
2023-02-15T00:04:45.627Z,14.83
2023-02-15T00:08:57.887Z,14.47
2023-02-15T00:13:09.428Z,15.00
2023-02-15T00:17:22.028Z,14.23
2023-02-15T00:21:35.354Z,14.60
2023-02-15T00:25:47.018Z,14.13
2023-02-15T00:29:58.644Z,13.80
2023-02-15T00:34:16.658Z,13.00
2023-02-15T00:38:29.410Z,13.97
2023-02-15T00:42:41.007Z,15.07
2023-02-15T00:46:53.628Z,12.83
2023-02-15T00:51:06.021Z,12.80
2023-02-15T00:55:17.727Z,14.57
2023-02-15T00:59:29.381Z,13.43
2023-02-15T01:03:42.662Z,13.77
2023-02-15T01:07:54.745Z,14.40
2023-02-15T01:12:06.377Z,14.00
2023-02-15T01:16:18.614Z,14.33
2023-02-15T01:20:31.279Z,14.17
2023-02-15T01:24:43.378Z,14.63
2023-02-15T01:28:55.030Z,14.40
2023-02-15T01:33:08.436Z,13.33
2023-02-15T01:37:20.162Z,14.13
2023-02-15T01:41:31.981Z,14.20
2023-02-15T01:45:48.791Z,13.27
2023-02-15T01:50:10.861Z,12.93
2023-02-15T01:54:33.688Z,12.07
2023-02-15T01:58:46.444Z,12.23
2023-02-15T02:02:58.518Z,13.03
2023-02-15T02:07:10.998Z,13.03
2023-02-15T02:11:23.776Z,12.53
2023-02-15T02:15:57.921Z,12.40
2023-02-15T02:20:28.312Z,13.53
2023-02-15T02:24:47.247Z,12.70
2023-02-15T02:29:17.315Z,13.20
2023-02-15T02:33:44.400Z,12.30
2023-02-15T02:38:31.059Z,11.80
2023-02-15T02:42:45.466Z,11.07
2023-02-15T02:47:08.819Z,12.03
2023-02-15T02:51:23.368Z,11.73
2023-02-15T02:55:48.328Z,12.53
2023-02-15T03:00:04.740Z,13.30
2023-02-15T03:04:25.782Z,12.67
2023-02-15T03:08:43.791Z,12.50
2023-02-15T03:12:55.568Z,12.90
2023-02-15T03:17:08.590Z,13.43
2023-02-15T03:21:25.638Z,13.03
2023-02-15T03:25:42.736Z,13.90
2023-02-15T03:30:00.427Z,12.60
2023-02-15T03:34:15.331Z,13.17
2023-02-15T03:38:34.910Z,13.07
2023-02-15T03:42:49.847Z,12.80
2023-02-15T03:47:04.375Z,12.83
2023-02-15T03:51:36.380Z,13.13
2023-02-15T03:55:50.126Z,14.63
2023-02-15T04:00:33.101Z,13.60
2023-02-15T04:04:47.879Z,13.63
2023-02-15T04:09:18.137Z,14.23
2023-02-15T04:13:33.533Z,12.20
2023-02-15T04:17:45.180Z,13.37
2023-02-15T04:22:15.752Z,12.73
2023-02-15T04:26:27.289Z,14.23
2023-02-15T04:30:38.917Z,13.37
2023-02-15T04:34:50.454Z,12.80
2023-02-15T04:39:02.101Z,12.73
2023-02-15T04:43:13.655Z,12.80
2023-02-15T04:47:25.267Z,12.07
2023-02-15T04:51:37.189Z,13.57
2023-02-15T04:55:48.902Z,12.63
2023-02-15T05:00:00.605Z,12.40
2023-02-15T05:04:12.334Z,11.73
2023-02-15T05:08:23.931Z,11.43
2023-02-15T05:12:35.469Z,12.17
2023-02-15T05:16:47.132Z,12.63
2023-02-15T05:20:58.796Z,13.43
2023-02-15T05:25:28.931Z,12.77
2023-02-15T05:29:40.582Z,13.70
2023-02-15T05:33:52.120Z,12.33
2023-02-15T05:38:03.928Z,12.90
2023-02-15T05:42:15.542Z,13.23
2023-02-15T05:46:27.210Z,14.37
2023-02-15T05:50:40.002Z,12.77
2023-02-15T05:54:51.604Z,12.27
2023-02-15T05:59:03.634Z,13.47
2023-02-15T06:03:15.276Z,13.00
2023-02-15T06:07:26.968Z,14.63
2023-02-15T06:11:38.565Z,12.77
2023-02-15T06:15:50.175Z,13.77
2023-02-15T06:20:01.913Z,13.40
2023-02-15T06:24:13.690Z,12.83
2023-02-15T06:28:26.455Z,14.10
2023-02-15T06:32:38.019Z,13.30
2023-02-15T06:36:49.617Z,13.63
2023-02-15T06:41:01.307Z,14.87
2023-02-15T06:45:13.066Z,13.93
2023-02-15T06:49:24.745Z,15.13
2023-02-15T06:53:36.813Z,14.60
2023-02-15T06:57:50.860Z,13.70
2023-02-15T07:02:02.819Z,15.13
2023-02-15T07:06:14.532Z,14.00
2023-02-15T07:10:26.508Z,16.50
2023-02-15T07:14:38.161Z,17.07
2023-02-15T07:18:49.756Z,17.87
2023-02-15T07:23:01.370Z,15.53
2023-02-15T07:27:13.677Z,16.20
2023-02-15T07:31:25.521Z,16.30
2023-02-15T07:35:37.073Z,13.67
2023-02-15T07:39:48.720Z,15.53
2023-02-15T07:44:00.379Z,14.97
2023-02-15T07:48:12.023Z,16.27
2023-02-15T07:52:23.694Z,15.37
2023-02-15T07:57:41.499Z,14.67
2023-02-15T08:01:57.431Z,14.27
2023-02-15T08:06:17.524Z,13.50
2023-02-15T08:10:49.686Z,13.40
2023-02-15T08:15:07.616Z,12.83
2023-02-15T08:19:19.611Z,13.53
2023-02-15T08:23:33.570Z,14.07
2023-02-15T08:27:45.315Z,13.80
2023-02-15T08:32:05.349Z,12.53
2023-02-15T08:36:20.696Z,14.20
2023-02-15T08:40:32.296Z,13.47
2023-02-15T08:44:44.052Z,12.50
2023-02-15T08:48:55.976Z,14.27
2023-02-15T08:53:09.685Z,13.57
2023-02-15T08:57:21.635Z,13.93
2023-02-15T09:01:35.472Z,13.60
2023-02-15T09:05:47.387Z,12.93
2023-02-15T09:09:59.374Z,12.95
2023-02-15T09:14:15.406Z,14.23
2023-02-15T09:18:27.447Z,12.52
2023-02-15T09:22:39.246Z,13.63
2023-02-15T09:26:54.059Z,12.98
2023-02-15T09:31:41.668Z,13.45
2023-02-15T09:35:53.625Z,13.55
2023-02-15T09:40:06.258Z,13.20
2023-02-15T09:44:36.584Z,13.23
2023-02-15T09:49:03.235Z,13.43
2023-02-15T09:53:21.222Z,12.90
2023-02-15T09:58:06.445Z,13.43
2023-02-15T10:02:28.285Z,13.32
2023-02-15T10:07:12.860Z,13.80
2023-02-15T10:11:52.650Z,14.25
2023-02-15T10:16:24.085Z,13.57
2023-02-15T10:21:19.860Z,12.85
2023-02-15T10:25:49.563Z,14.30
2023-02-15T10:30:21.280Z,13.02
2023-02-15T10:34:40.516Z,13.68
2023-02-15T10:39:34.231Z,12.95
2023-02-15T10:44:10.646Z,12.73
2023-02-15T10:48:36.215Z,13.52
2023-02-15T10:53:12.860Z,13.48
2023-02-15T10:57:51.932Z,13.63
2023-02-15T11:02:14.471Z,13.77
2023-02-15T11:06:27.689Z,11.45
2023-02-15T11:11:03.564Z,12.82
2023-02-15T11:15:37.385Z,12.48
2023-02-15T11:20:17.299Z,13.45
2023-02-15T11:24:32.264Z,12.25
2023-02-15T11:28:56.134Z,13.73
2023-02-15T11:33:19.959Z,14.35
2023-02-15T11:38:04.830Z,12.77
2023-02-15T11:42:20.654Z,14.07
2023-02-15T11:46:32.686Z,13.55
2023-02-15T11:50:46.158Z,14.23
2023-02-15T11:54:57.855Z,13.80
2023-02-15T11:59:20.250Z,13.65
2023-02-15T12:03:45.498Z,14.10
2023-02-15T12:08:05.172Z,12.88
2023-02-15T12:12:25.134Z,13.85
2023-02-15T12:16:52.007Z,14.60
2023-02-15T12:21:12.834Z,14.07
2023-02-15T12:25:38.346Z,14.32
2023-02-15T12:29:54.733Z,14.00
2023-02-15T12:34:33.705Z,15.40
2023-02-15T12:39:04.748Z,13.63
2023-02-15T12:43:32.146Z,14.07
2023-02-15T12:47:43.790Z,14.93
2023-02-15T12:52:01.762Z,14.07
2023-02-15T12:56:13.553Z,15.25
2023-02-15T13:00:30.223Z,13.98
2023-02-15T13:04:49.784Z,14.82
2023-02-15T13:09:15.278Z,14.55
2023-02-15T13:13:30.401Z,14.50
2023-02-15T13:17:44.954Z,14.60
2023-02-15T13:21:58.704Z,14.55
2023-02-15T13:26:17.217Z,15.73
2023-02-15T13:30:36.046Z,14.10
2023-02-15T13:34:47.802Z,15.93
2023-02-15T13:39:11.854Z,14.57
2023-02-15T13:43:48.362Z,13.73
2023-02-15T13:48:08.986Z,16.05
2023-02-15T13:52:24.653Z,14.95
2023-02-15T13:57:09.001Z,15.20
2023-02-15T14:01:47.383Z,15.85
2023-02-15T14:06:23.754Z,15.02
2023-02-15T14:11:00.366Z,15.75
2023-02-15T14:15:25.674Z,14.98
2023-02-15T14:19:47.017Z,15.63
2023-02-15T14:24:46.115Z,16.02
2023-02-15T14:29:21.980Z,15.68
2023-02-15T14:33:38.550Z,15.48
2023-02-15T14:38:11.648Z,16.13
2023-02-15T14:42:45.954Z,16.40
2023-02-15T14:47:22.993Z,15.52
2023-02-15T14:51:46.943Z,14.90
2023-02-15T14:56:19.060Z,14.88
2023-02-15T15:00:48.848Z,15.18
2023-02-15T15:05:07.744Z,15.25
2023-02-15T15:09:31.611Z,14.85
2023-02-15T15:13:56.627Z,15.02
2023-02-15T15:18:10.256Z,15.32
2023-02-15T15:22:24.560Z,15.38
2023-02-15T15:26:41.671Z,16.10
2023-02-15T15:30:55.574Z,15.75
2023-02-15T15:35:56.166Z,15.90
2023-02-15T15:40:43.320Z,15.68
2023-02-15T15:45:50.585Z,15.85
2023-02-15T15:50:06.284Z,15.27
2023-02-15T15:54:24.121Z,16.05
2023-02-15T15:58:36.010Z,15.32
2023-02-15T16:02:52.697Z,16.08
2023-02-15T16:07:19.653Z,14.88
2023-02-15T16:11:32.364Z,15.02
2023-02-15T16:15:51.054Z,15.55
2023-02-15T16:20:15.311Z,16.40
2023-02-15T16:25:18.498Z,17.52
2023-02-15T16:29:33.490Z,17.65
2023-02-15T16:33:48.583Z,16.60
2023-02-15T16:38:00.600Z,17.38
2023-02-15T16:42:15.396Z,18.52
2023-02-15T16:46:42.100Z,18.33
2023-02-15T16:50:56.903Z,17.83
2023-02-15T16:55:45.870Z,18.63
2023-02-15T17:00:08.263Z,17.38
2023-02-15T17:04:22.955Z,18.17
2023-02-15T17:08:42.367Z,17.63
2023-02-15T17:12:58.854Z,18.33
2023-02-15T17:17:15.991Z,17.70
2023-02-15T17:21:40.041Z,17.67
2023-02-15T17:25:52.894Z,17.73
2023-02-15T17:30:18.094Z,20.90
2023-02-15T17:34:50.844Z,19.90
2023-02-15T17:39:07.465Z,19.83
2023-02-15T17:43:19.048Z,18.75
2023-02-15T17:47:31.473Z,22.13
2023-02-15T17:51:43.204Z,22.20
2023-02-15T17:55:55.311Z,60.65
2023-02-15T18:00:26.441Z,27.42
2023-02-15T18:04:56.677Z,46.78
2023-02-15T18:09:30.935Z,54.70
2023-02-15T18:13:42.774Z,61.10
2023-02-15T18:17:55.170Z,53.38
2023-02-15T18:22:12.796Z,43.05
2023-02-15T18:26:25.805Z,34.10
2023-02-15T18:30:42.493Z,30.42
2023-02-15T18:34:57.988Z,26.65
2023-02-15T18:39:33.272Z,23.17
2023-02-15T18:43:46.202Z,21.20
2023-02-15T18:47:57.920Z,19.93
2023-02-15T18:52:16.688Z,19.95
2023-02-15T18:56:28.280Z,19.27
2023-02-15T19:00:40.484Z,22.37
2023-02-15T19:04:52.048Z,22.43
2023-02-15T19:09:03.970Z,22.60
2023-02-15T19:13:17.407Z,26.67
2023-02-15T19:17:29.053Z,30.23
2023-02-15T19:21:40.701Z,33.83
2023-02-15T19:25:53.607Z,35.53
2023-02-15T19:30:34.668Z,31.87
2023-02-15T19:34:46.675Z,26.93
2023-02-15T19:38:58.294Z,23.43
2023-02-15T19:43:18.746Z,22.33
2023-02-15T19:47:30.407Z,21.50
2023-02-15T19:51:43.064Z,22.97
2023-02-15T19:55:55.048Z,23.27
2023-02-15T20:00:26.024Z,22.10
2023-02-15T20:04:37.569Z,21.97
2023-02-15T20:08:49.219Z,23.23
2023-02-15T20:13:26.627Z,22.47
2023-02-15T20:22:31.587Z,21.43
2023-02-15T20:26:59.779Z,21.60
2023-02-15T20:31:26.796Z,20.57
2023-02-15T20:35:45.812Z,19.37
2023-02-15T20:41:11.093Z,20.50
2023-02-15T21:13:07.224Z,18.37
2023-02-15T21:17:39.963Z,18.90
2023-02-15T21:21:53.525Z,17.67
2023-02-15T21:26:19.103Z,17.80
2023-02-15T21:30:31.040Z,17.83
2023-02-15T21:34:42.716Z,18.13
2023-02-15T21:38:54.498Z,17.87
2023-02-15T21:43:31.963Z,17.53
2023-02-15T21:47:52.789Z,19.03
2023-02-15T21:52:13.163Z,18.43
2023-02-15T21:56:25.229Z,17.27
2023-02-15T22:00:36.929Z,18.23
2023-02-15T22:04:48.505Z,16.50
2023-02-15T22:09:00.100Z,17.67
2023-02-15T22:13:18.173Z,17.27
2023-02-15T22:17:29.964Z,17.30
2023-02-15T22:21:41.642Z,18.33
2023-02-15T22:25:59.356Z,18.20
2023-02-15T22:30:18.539Z,17.10
2023-02-15T22:34:32.160Z,19.40
2023-02-15T22:38:43.762Z,18.37
2023-02-15T22:42:58.080Z,18.97
2023-02-15T22:47:19.739Z,18.80
2023-02-15T22:51:31.384Z,17.47
2023-02-15T22:55:43.590Z,18.67
2023-02-15T22:59:55.601Z,17.50
2023-02-15T23:04:07.278Z,16.47
2023-02-15T23:08:19.282Z,17.57
2023-02-15T23:12:50.609Z,18.37
2023-02-15T23:17:03.066Z,17.83
2023-02-15T23:21:20.874Z,18.43
2023-02-15T23:25:32.428Z,20.53
2023-02-15T23:29:44.034Z,19.50
2023-02-15T23:33:56.399Z,19.87
2023-02-15T23:38:24.563Z,19.67
2023-02-15T23:42:36.298Z,20.10
2023-02-15T23:46:49.579Z,20.13
2023-02-15T23:51:02.333Z,18.33
2023-02-15T23:55:15.275Z,18.70
2023-02-15T23:59:30.071Z,19.70
